Howe, Oklahoma
Current Conditions -  °F | °C
As of 8:35 AM on Tuesday 21 Oct 2014 (Local Time) from KRKR Reporting Station
Haze Haze  
Wind Chill: 57°   Ceiling: 200
Heat Index: 57°   Visibility: 2.5mi
Dew Point: 56°   Wind: 0mph
Humidity: 96%   Direction: NA
Pressure: 30.12"   Gusts: NA
Location:  34.95°N, 94.64°W
Report Text: KRKR 211335Z AUTO 00000KT 2 1/2SM BR OVC002 14/14 A3012 RMK AO2 T01410135
Loading
Personal Weather Stations






























Interactive Weather Map
Tropical Storm Tracking
New forecast layout! Learn more

10-Day Weather Forecast

Advertisements
Track Severe Weather on mobile